sensor_id;sensor_type;location;lat;lon;timestamp;pressure;altitude;pressure_sealevel;temperature;humidity
18819;BME280;9537;45.594;9.294;2022-10-26T00:00:50;100187.56;;;17.32;99.12
18819;BME280;9537;45.594;9.294;2022-10-26T00:01:53;100183.88;;;17.33;99.28
18819;BME280;9537;45.594;9.294;2022-10-26T00:02:54;100185.53;;;17.34;99.37
18819;BME280;9537;45.594;9.294;2022-10-26T00:03:57;100178.13;;;17.36;99.18
18819;BME280;9537;45.594;9.294;2022-10-26T00:04:59;100175.84;;;17.33;99.32
18819;BME280;9537;45.594;9.294;2022-10-26T00:06:05;100178.13;;;17.36;99.36
18819;BME280;9537;45.594;9.294;2022-10-26T00:07:07;100168.25;;;17.37;99.54
18819;BME280;9537;45.594;9.294;2022-10-26T00:08:09;100177.94;;;17.38;99.38
18819;BME280;9537;45.594;9.294;2022-10-26T00:09:10;100179.56;;;17.39;99.56
18819;BME280;9537;45.594;9.294;2022-10-26T00:10:12;100177.94;;;17.38;99.41
18819;BME280;9537;45.594;9.294;2022-10-26T00:11:14;100170.09;;;17.36;99.69
18819;BME280;9537;45.594;9.294;2022-10-26T00:12:17;100173.81;;;17.35;99.80
18819;BME280;9537;45.594;9.294;2022-10-26T00:13:18;100176.47;;;17.35;99.85
18819;BME280;9537;45.594;9.294;2022-10-26T00:14:20;100174.44;;;17.37;99.97
18819;BME280;9537;45.594;9.294;2022-10-26T00:15:21;100175.44;;;17.36;99.97
18819;BME280;9537;45.594;9.294;2022-10-26T00:16:25;100189.59;;;17.37;99.81
18819;BME280;9537;45.594;9.294;2022-10-26T00:17:27;100190.66;;;17.36;99.91
18819;BME280;9537;45.594;9.294;2022-10-26T00:18:29;100198.66;;;17.36;99.91
18819;BME280;9537;45.594;9.294;2022-10-26T00:19:32;100206.03;;;17.33;99.88
18819;BME280;9537;45.594;9.294;2022-10-26T00:20:34;100201.75;;;17.32;99.90
18819;BME280;9537;45.594;9.294;2022-10-26T00:21:35;100207.69;;;17.34;99.93
18819;BME280;9537;45.594;9.294;2022-10-26T00:22:38;100203.19;;;17.35;100.00
18819;BME280;9537;45.594;9.294;2022-10-26T00:23:39;100212.22;;;17.34;100.00
18819;BME280;9537;45.594;9.294;2022-10-26T00:24:41;100210.56;;;17.33;100.00
18819;BME280;9537;45.594;9.294;2022-10-26T00:25:42;100212.59;;;17.31;100.00
18819;BME280;9537;45.594;9.294;2022-10-26T00:26:46;100210.97;;;17.30;100.00
18819;BME280;9537;45.594;9.294;2022-10-26T00:27:48;100208.31;;;17.30;100.00
18819;BME280;9537;45.594;9.294;2022-10-26T00:28:52;100203.78;;;17.30;100.00
18819;BME280;9537;45.594;9.294;2022-10-26T00:29:53;100205.22;;;17.33;100.00
18819;BME280;9537;45.594;9.294;2022-10-26T00:30:59;100210.56;;;17.33;100.00
18819;BME280;9537;45.594;9.294;2022-10-26T00:32:01;100197.22;;;17.33;100.00
18819;BME280;9537;45.594;9.294;2022-10-26T00:33:03;100197.22;;;17.33;100.00
18819;BME280;9537;45.594;9.294;2022-10-26T00:34:04;100199.69;;;17.34;100.00
18819;BME280;9537;45.594;9.294;2022-10-26T00:35:07;100197.84;;;17.35;100.00
18819;BME280;9537;45.594;9.294;2022-10-26T00:36:08;100201.13;;;17.37;100.00
18819;BME280;9537;45.594;9.294;2022-10-26T00:37:13;100195.81;;;17.37;100.00
18819;BME280;9537;45.594;9.294;2022-10-26T00:38:14;100197.44;;;17.38;100.00
18819;BME280;9537;45.594;9.294;2022-10-26T00:39:16;100192.91;;;17.39;99.97
18819;BME280;9537;45.594;9.294;2022-10-26T00:40:17;100199.69;;;17.41;99.83
18819;BME280;9537;45.594;9.294;2022-10-26T00:41:21;100196.19;;;17.41;99.50
18819;BME280;9537;45.594;9.294;2022-10-26T00:42:23;100200.50;;;17.42;99.33
18819;BME280;9537;45.594;9.294;2022-10-26T00:43:37;100205.03;;;17.41;99.25
18819;BME280;9537;45.594;9.294;2022-10-26T00:44:55;100205.84;;;17.42;99.16
18819;BME280;9537;45.594;9.294;2022-10-26T00:45:58;100205.03;;;17.41;98.93
18819;BME280;9537;45.594;9.294;2022-10-26T00:47:03;100202.34;;;17.41;98.93
18819;BME280;9537;45.594;9.294;2022-10-26T00:48:07;100195.56;;;17.39;99.16
18819;BME280;9537;45.594;9.294;2022-10-26T00:49:13;100203.59;;;17.39;99.36
18819;BME280;9537;45.594;9.294;2022-10-26T00:50:18;100200.28;;;17.37;99.57
18819;BME280;9537;45.594;9.294;2022-10-26T00:51:24;100202.16;;;17.36;99.49
18819;BME280;9537;45.594;9.294;2022-10-26T00:52:28;100203.19;;;17.35;99.45
18819;BME280;9537;45.594;9.294;2022-10-26T00:53:31;100208.53;;;17.35;99.65
18819;BME280;9537;45.594;9.294;2022-10-26T00:54:33;100201.13;;;17.37;99.47
18819;BME280;9537;45.594;9.294;2022-10-26T00:55:37;100200.28;;;17.37;99.21
18819;BME280;9537;45.594;9.294;2022-10-26T00:56:40;100201.13;;;17.37;99.46
18819;BME280;9537;45.594;9.294;2022-10-26T00:57:42;100196.81;;;17.36;99.41
18819;BME280;9537;45.594;9.294;2022-10-26T00:58:45;100201.13;;;17.37;99.30
18819;BME280;9537;45.594;9.294;2022-10-26T00:59:48;100208.13;;;17.38;99.29
18819;BME280;9537;45.594;9.294;2022-10-26T01:00:52;100199.88;;;17.40;99.30
18819;BME280;9537;45.594;9.294;2022-10-26T01:01:54;100208.53;;;17.42;99.13
18819;BME280;9537;45.594;9.294;2022-10-26T01:02:56;100214.69;;;17.42;99.01
18819;BME280;9537;45.594;9.294;2022-10-26T01:04:01;100221.69;;;17.43;98.71
18819;BME280;9537;45.594;9.294;2022-10-26T01:05:02;100212.00;;;17.42;98.64
18819;BME280;9537;45.594;9.294;2022-10-26T01:06:07;100208.31;;;17.43;98.40
18819;BME280;9537;45.594;9.294;2022-10-26T01:07:10;100204.63;;;17.44;98.49
18819;BME280;9537;45.594;9.294;2022-10-26T01:08:12;100201.53;;;17.47;98.44
18819;BME280;9537;45.594;9.294;2022-10-26T01:09:16;100207.28;;;17.44;98.35
18819;BME280;9537;45.594;9.294;2022-10-26T01:10:18;100202.75;;;17.45;98.29
18819;BME280;9537;45.594;9.294;2022-10-26T01:11:21;100200.50;;;17.42;98.39
18819;BME280;9537;45.594;9.294;2022-10-26T01:12:22;100204.41;;;17.39;98.48
18819;BME280;9537;45.594;9.294;2022-10-26T01:13:25;100202.34;;;17.41;98.58
18819;BME280;9537;45.594;9.294;2022-10-26T01:14:29;100207.69;;;17.41;98.39
18819;BME280;9537;45.594;9.294;2022-10-26T01:15:37;100209.34;;;17.42;97.97
18819;BME280;9537;45.594;9.294;2022-10-26T01:16:48;100203.19;;;17.42;98.30
18819;BME280;9537;45.594;9.294;2022-10-26T01:17:56;100204.41;;;17.39;98.41
18819;BME280;9537;45.594;9.294;2022-10-26T01:19:17;100206.47;;;17.37;98.58
18819;BME280;9537;45.594;9.294;2022-10-26T01:21:52;100194.13;;;17.36;98.69
18819;BME280;9537;45.594;9.294;2022-10-26T01:22:58;100198.66;;;17.36;98.82
18819;BME280;9537;45.594;9.294;2022-10-26T01:25:51;100191.28;;;17.38;98.68
18819;BME280;9537;45.594;9.294;2022-10-26T01:28:34;100186.75;;;17.38;98.31
18819;BME280;9537;45.594;9.294;2022-10-26T01:31:30;100184.09;;;17.38;98.26
18819;BME280;9537;45.594;9.294;2022-10-26T01:32:39;100191.06;;;17.39;97.98
18819;BME280;9537;45.594;9.294;2022-10-26T01:33:49;100189.59;;;17.37;97.95
18819;BME280;9537;45.594;9.294;2022-10-26T01:34:55;100188.78;;;17.36;97.90
18819;BME280;9537;45.594;9.294;2022-10-26T01:36:05;100183.47;;;17.36;97.53
18819;BME280;9537;45.594;9.294;2022-10-26T01:37:10;100191.69;;;17.34;97.63
18819;BME280;9537;45.594;9.294;2022-10-26T01:38:19;100196.22;;;17.34;97.65
18819;BME280;9537;45.594;9.294;2022-10-26T01:39:27;100189.19;;;17.33;97.78
18819;BME280;9537;45.594;9.294;2022-10-26T01:40:34;100194.75;;;17.31;97.84
18819;BME280;9537;45.594;9.294;2022-10-26T01:41:44;100187.34;;;17.33;97.79
18819;BME280;9537;45.594;9.294;2022-10-26T01:42:49;100181.41;;;17.31;97.73
18819;BME280;9537;45.594;9.294;2022-10-26T01:43:55;100184.09;;;17.31;97.80
18819;BME280;9537;45.594;9.294;2022-10-26T01:45:01;100183.88;;;17.33;97.51
18819;BME280;9537;45.594;9.294;2022-10-26T01:46:06;100181.81;;;17.28;97.93
18819;BME280;9537;45.594;9.294;2022-10-26T01:47:12;100186.13;;;17.29;98.02
18819;BME280;9537;45.594;9.294;2022-10-26T01:48:17;100187.16;;;17.28;97.83
18819;BME280;9537;45.594;9.294;2022-10-26T01:49:25;100177.72;;;17.26;97.95
18819;BME280;9537;45.594;9.294;2022-10-26T01:50:29;100190.03;;;17.27;98.16
18819;BME280;9537;45.594;9.294;2022-10-26T01:51:31;100179.53;;;17.25;98.18
18819;BME280;9537;45.594;9.294;2022-10-26T01:52:35;100188.56;;;17.24;98.25
18819;BME280;9537;45.594;9.294;2022-10-26T01:53:41;100191.66;;;17.21;98.28
18819;BME280;9537;45.594;9.294;2022-10-26T01:54:45;100191.25;;;17.18;98.53
18819;BME280;9537;45.594;9.294;2022-10-26T01:55:48;100192.88;;;17.19;98.72
18819;BME280;9537;45.594;9.294;2022-10-26T01:56:52;100200.88;;;17.19;98.61
18819;BME280;9537;45.594;9.294;2022-10-26T01:58:04;100189.59;;;17.17;98.61
18819;BME280;9537;45.594;9.294;2022-10-26T01:59:31;100193.06;;;17.10;99.14
18819;BME280;9537;45.594;9.294;2022-10-26T02:00:43;100187.31;;;17.07;99.50
18819;BME280;9537;45.594;9.294;2022-10-26T02:02:12;100190.63;;;17.09;99.52
18819;BME280;9537;45.594;9.294;2022-10-26T02:03:24;100184.88;;;17.12;99.42
18819;BME280;9537;45.594;9.294;2022-10-26T02:04:40;100190.84;;;17.14;99.26
18819;BME280;9537;45.594;9.294;2022-10-26T02:05:50;100199.84;;;17.13;99.32
18819;BME280;9537;45.594;9.294;2022-10-26T02:07:00;100192.06;;;17.11;99.23
18819;BME280;9537;45.594;9.294;2022-10-26T02:08:18;100180.75;;;17.09;99.41
18819;BME280;9537;45.594;9.294;2022-10-26T02:09:28;100180.75;;;17.09;99.60
18819;BME280;9537;45.594;9.294;2022-10-26T02:10:42;100175.41;;;17.09;99.46
18819;BME280;9537;45.594;9.294;2022-10-26T02:11:49;100186.09;;;17.09;99.54
18819;BME280;9537;45.594;9.294;2022-10-26T02:12:54;100188.53;;;17.11;99.25
18819;BME280;9537;45.594;9.294;2022-10-26T02:14:16;100184.88;;;17.12;99.16
18819;BME280;9537;45.594;9.294;2022-10-26T02:15:21;100188.34;;;17.13;99.00
18819;BME280;9537;45.594;9.294;2022-10-26T02:16:25;100179.31;;;17.14;98.94
18819;BME280;9537;45.594;9.294;2022-10-26T02:17:34;100185.69;;;17.06;99.26
18819;BME280;9537;45.594;9.294;2022-10-26T02:18:42;100171.31;;;17.07;99.13
18819;BME280;9537;45.594;9.294;2022-10-26T02:19:50;100170.09;;;17.09;99.10
18819;BME280;9537;45.594;9.294;2022-10-26T02:20:58;100169.88;;;17.11;98.88
18819;BME280;9537;45.594;9.294;2022-10-26T02:22:05;100166.38;;;17.10;98.41
18819;BME280;9537;45.594;9.294;2022-10-26T02:23:09;100168.22;;;17.10;98.30
18819;BME280;9537;45.594;9.294;2022-10-26T02:24:12;100174.38;;;17.10;98.16
18819;BME280;9537;45.594;9.294;2022-10-26T02:25:18;100174.78;;;17.07;97.82
18819;BME280;9537;45.594;9.294;2022-10-26T02:26:23;100179.53;;;17.05;97.68
18819;BME280;9537;45.594;9.294;2022-10-26T02:27:28;100177.25;;;17.02;97.75
18819;BME280;9537;45.594;9.294;2022-10-26T02:28:34;100172.13;;;17.01;97.85
18819;BME280;9537;45.594;9.294;2022-10-26T02:29:37;100173.97;;;17.00;98.05
18819;BME280;9537;45.594;9.294;2022-10-26T02:30:41;100173.16;;;17.00;98.16
18819;BME280;9537;45.594;9.294;2022-10-26T02:31:46;100172.31;;;16.99;97.97
18819;BME280;9537;45.594;9.294;2022-10-26T02:32:51;100175.59;;;17.01;97.99
18819;BME280;9537;45.594;9.294;2022-10-26T02:33:56;100171.50;;;16.99;97.80
18819;BME280;9537;45.594;9.294;2022-10-26T02:35:01;100169.84;;;16.98;98.15
18819;BME280;9537;45.594;9.294;2022-10-26T02:36:06;100170.69;;;16.98;98.00
18819;BME280;9537;45.594;9.294;2022-10-26T02:37:08;100165.75;;;16.95;98.35
18819;BME280;9537;45.594;9.294;2022-10-26T02:38:11;100167.59;;;16.95;98.36
18819;BME280;9537;45.594;9.294;2022-10-26T02:39:15;100157.50;;;16.90;98.26
18819;BME280;9537;45.594;9.294;2022-10-26T02:40:21;100159.56;;;16.88;98.20
18819;BME280;9537;45.594;9.294;2022-10-26T02:41:25;100164.47;;;16.84;98.26
18819;BME280;9537;45.594;9.294;2022-10-26T02:42:30;100159.16;;;16.84;98.52
18819;BME280;9537;45.594;9.294;2022-10-26T02:43:36;100158.34;;;16.91;98.23
18819;BME280;9537;45.594;9.294;2022-10-26T02:44:42;100159.56;;;16.88;98.34
18819;BME280;9537;45.594;9.294;2022-10-26T02:45:48;100162.22;;;16.88;98.75
18819;BME280;9537;45.594;9.294;2022-10-26T02:46:52;100167.78;;;16.86;98.82
18819;BME280;9537;45.594;9.294;2022-10-26T02:47:56;100163.66;;;16.84;99.04
18819;BME280;9537;45.594;9.294;2022-10-26T02:48:59;100158.31;;;16.84;99.09
18819;BME280;9537;45.594;9.294;2022-10-26T02:50:00;100158.31;;;16.84;99.20
18819;BME280;9537;45.594;9.294;2022-10-26T02:51:08;100155.66;;;16.84;99.33
18819;BME280;9537;45.594;9.294;2022-10-26T02:52:16;100153.63;;;16.86;99.46
18819;BME280;9537;45.594;9.294;2022-10-26T02:53:24;100155.25;;;16.87;99.65
18819;BME280;9537;45.594;9.294;2022-10-26T02:54:33;100156.06;;;16.81;99.99
18819;BME280;9537;45.594;9.294;2022-10-26T02:55:41;100163.25;;;16.80;99.94
18819;BME280;9537;45.594;9.294;2022-10-26T02:56:48;100160.31;;;16.75;100.00
18819;BME280;9537;45.594;9.294;2022-10-26T02:57:55;100157.47;;;16.77;100.00
18819;BME280;9537;45.594;9.294;2022-10-26T02:59:02;100157.09;;;16.80;100.00
18819;BME280;9537;45.594;9.294;2022-10-26T03:00:06;100164.47;;;16.78;100.00
18819;BME280;9537;45.594;9.294;2022-10-26T03:01:07;100160.38;;;16.82;100.00
18819;BME280;9537;45.594;9.294;2022-10-26T03:02:10;100163.25;;;16.80;100.00
18819;BME280;9537;45.594;9.294;2022-10-26T03:03:14;100165.69;;;16.82;100.00
18819;BME280;9537;45.594;9.294;2022-10-26T03:04:17;100163.84;;;16.82;100.00
18819;BME280;9537;45.594;9.294;2022-10-26T03:05:20;100157.69;;;16.82;100.00
18819;BME280;9537;45.594;9.294;2022-10-26T03:06:24;100164.69;;;16.83;100.00
18819;BME280;9537;45.594;9.294;2022-10-26T03:07:26;100167.38;;;16.83;100.00
18819;BME280;9537;45.594;9.294;2022-10-26T03:08:27;100170.63;;;16.85;100.00
18819;BME280;9537;45.594;9.294;2022-10-26T03:09:29;100174.16;;;16.85;100.00
18819;BME280;9537;45.594;9.294;2022-10-26T03:10:31;100178.03;;;16.83;100.00
18819;BME280;9537;45.594;9.294;2022-10-26T03:11:34;100161.41;;;16.81;100.00
18819;BME280;9537;45.594;9.294;2022-10-26T03:12:35;100168.19;;;16.83;100.00
18819;BME280;9537;45.594;9.294;2022-10-26T03:13:37;100160.38;;;16.82;100.00
18819;BME280;9537;45.594;9.294;2022-10-26T03:14:38;100155.84;;;16.82;100.00
18819;BME280;9537;45.594;9.294;2022-10-26T03:15:40;100155.84;;;16.82;100.00
18819;BME280;9537;45.594;9.294;2022-10-26T03:16:42;100158.31;;;16.84;100.00
18819;BME280;9537;45.594;9.294;2022-10-26T03:17:44;100152.81;;;16.85;100.00
18819;BME280;9537;45.594;9.294;2022-10-26T03:18:46;100157.28;;;16.85;100.00
18819;BME280;9537;45.594;9.294;2022-10-26T03:19:48;100163.88;;;16.89;100.00
18819;BME280;9537;45.594;9.294;2022-10-26T03:20:52;100159.38;;;16.89;100.00
18819;BME280;9537;45.594;9.294;2022-10-26T03:21:54;100163.88;;;16.89;100.00
18819;BME280;9537;45.594;9.294;2022-10-26T03:22:54;100162.84;;;16.90;100.00
18819;BME280;9537;45.594;9.294;2022-10-26T03:23:57;100173.75;;;16.88;100.00
18819;BME280;9537;45.594;9.294;2022-10-26T03:24:58;100165.09;;;16.86;99.92
18819;BME280;9537;45.594;9.294;2022-10-26T03:26:00;100166.97;;;16.86;99.94
18819;BME280;9537;45.594;9.294;2022-10-26T03:27:01;100167.38;;;16.83;100.00
18819;BME280;9537;45.594;9.294;2022-10-26T03:28:04;100163.03;;;16.82;100.00
18819;BME280;9537;45.594;9.294;2022-10-26T03:29:05;100164.06;;;16.81;100.00
18819;BME280;9537;45.594;9.294;2022-10-26T03:30:08;100169.41;;;16.81;100.00
18819;BME280;9537;45.594;9.294;2022-10-26T03:31:10;100163.84;;;16.82;100.00
18819;BME280;9537;45.594;9.294;2022-10-26T03:32:12;100174.75;;;16.81;100.00
18819;BME280;9537;45.594;9.294;2022-10-26T03:33:13;100158.09;;;16.79;100.00
18819;BME280;9537;45.594;9.294;2022-10-26T03:34:16;100173.50;;;16.83;100.00
18819;BME280;9537;45.594;9.294;2022-10-26T03:35:18;100167.97;;;16.85;100.00
18819;BME280;9537;45.594;9.294;2022-10-26T03:36:20;100172.28;;;16.86;100.00
18819;BME280;9537;45.594;9.294;2022-10-26T03:37:22;100174.34;;;16.84;100.00
18819;BME280;9537;45.594;9.294;2022-10-26T03:38:23;100173.31;;;16.85;100.00
18819;BME280;9537;45.594;9.294;2022-10-26T03:39:25;100169.00;;;16.84;100.00
18819;BME280;9537;45.594;9.294;2022-10-26T03:40:26;100174.75;;;16.87;100.00
18819;BME280;9537;45.594;9.294;2022-10-26T03:41:28;100170.63;;;16.85;100.00
18819;BME280;9537;45.594;9.294;2022-10-26T03:42:32;100172.47;;;16.84;100.00
18819;BME280;9537;45.594;9.294;2022-10-26T03:43:34;100169.00;;;16.84;100.00
18819;BME280;9537;45.594;9.294;2022-10-26T03:44:36;100167.78;;;16.86;100.00
18819;BME280;9537;45.594;9.294;2022-10-26T03:45:37;100169.81;;;16.84;100.00
18819;BME280;9537;45.594;9.294;2022-10-26T03:46:39;100172.06;;;16.87;100.00
18819;BME280;9537;45.594;9.294;2022-10-26T03:47:44;100172.91;;;16.88;100.00
18819;BME280;9537;45.594;9.294;2022-10-26T03:48:46;100171.25;;;16.87;100.00
18819;BME280;9537;45.594;9.294;2022-10-26T03:49:48;100173.13;;;16.86;100.00
18819;BME280;9537;45.594;9.294;2022-10-26T03:50:50;100170.22;;;16.88;100.00
18819;BME280;9537;45.594;9.294;2022-10-26T03:51:51;100170.84;;;16.90;100.00
18819;BME280;9537;45.594;9.294;2022-10-26T03:52:53;100169.81;;;16.91;100.00
18819;BME280;9537;45.594;9.294;2022-10-26T03:53:54;100173.34;;;16.92;100.00
18819;BME280;9537;45.594;9.294;2022-10-26T03:54:56;100174.97;;;16.93;100.00
18819;BME280;9537;45.594;9.294;2022-10-26T03:55:57;100166.97;;;16.93;100.00
18819;BME280;9537;45.594;9.294;2022-10-26T03:56:59;100165.75;;;16.95;100.00
18819;BME280;9537;45.594;9.294;2022-10-26T03:58:00;100166.56;;;16.96;100.00
18819;BME280;9537;45.594;9.294;2022-10-26T03:59:02;100167.78;;;16.93;100.00
18819;BME280;9537;45.594;9.294;2022-10-26T04:00:04;100159.56;;;16.88;100.00
18819;BME280;9537;45.594;9.294;2022-10-26T04:01:06;100156.28;;;16.86;100.00
18819;BME280;9537;45.594;9.294;2022-10-26T04:02:09;100153.22;;;16.89;100.00
18819;BME280;9537;45.594;9.294;2022-10-26T04:03:11;100149.31;;;16.92;100.00
18819;BME280;9537;45.594;9.294;2022-10-26T04:04:13;100151.16;;;16.91;100.00
18819;BME280;9537;45.594;9.294;2022-10-26T04:05:15;100150.97;;;16.93;100.00
18819;BME280;9537;45.594;9.294;2022-10-26T04:06:17;100153.63;;;16.93;100.00
18819;BME280;9537;45.594;9.294;2022-10-26T04:07:18;100148.47;;;16.91;100.00
18819;BME280;9537;45.594;9.294;2022-10-26T04:08:20;100149.91;;;16.94;100.00
18819;BME280;9537;45.594;9.294;2022-10-26T04:09:21;100154.25;;;16.95;100.00
18819;BME280;9537;45.594;9.294;2022-10-26T04:10:24;100154.03;;;16.96;100.00
18819;BME280;9537;45.594;9.294;2022-10-26T04:11:25;100153.03;;;16.97;100.00
18819;BME280;9537;45.594;9.294;2022-10-26T04:12:27;100154.47;;;17.00;100.00
18819;BME280;9537;45.594;9.294;2022-10-26T04:13:28;100150.97;;;16.99;100.00
18819;BME280;9537;45.594;9.294;2022-10-26T04:14:31;100140.28;;;16.99;100.00
18819;BME280;9537;45.594;9.294;2022-10-26T04:15:32;100145.63;;;16.99;100.00
18819;BME280;9537;45.594;9.294;2022-10-26T04:16:34;100153.63;;;16.99;100.00
18819;BME280;9537;45.594;9.294;2022-10-26T04:17:35;100146.84;;;16.97;100.00
18819;BME280;9537;45.594;9.294;2022-10-26T04:18:36;100155.88;;;16.96;100.00
18819;BME280;9537;45.594;9.294;2022-10-26T04:19:38;100166.78;;;16.94;100.00
18819;BME280;9537;45.594;9.294;2022-10-26T04:20:41;100162.44;;;16.93;100.00
18819;BME280;9537;45.594;9.294;2022-10-26T04:21:42;100166.78;;;16.94;100.00
18819;BME280;9537;45.594;9.294;2022-10-26T04:22:44;100163.25;;;16.94;100.00
18819;BME280;9537;45.594;9.294;2022-10-26T04:23:45;100164.13;;;16.94;100.00
18819;BME280;9537;45.594;9.294;2022-10-26T04:24:47;100164.94;;;16.95;100.00
18819;BME280;9537;45.594;9.294;2022-10-26T04:25:49;100163.25;;;16.94;100.00
18819;BME280;9537;45.594;9.294;2022-10-26T04:26:51;100168.59;;;16.94;100.00
18819;BME280;9537;45.594;9.294;2022-10-26T04:27:52;100168.59;;;16.94;100.00
18819;BME280;9537;45.594;9.294;2022-10-26T04:28:54;100180.13;;;16.94;100.00
18819;BME280;9537;45.594;9.294;2022-10-26T04:29:56;100182.78;;;16.94;100.00
18819;BME280;9537;45.594;9.294;2022-10-26T04:30:57;100178.47;;;16.93;100.00
18819;BME280;9537;45.594;9.294;2022-10-26T04:31:58;100181.75;;;16.95;100.00
18819;BME280;9537;45.594;9.294;2022-10-26T04:33:01;100185.25;;;16.96;100.00
18819;BME280;9537;45.594;9.294;2022-10-26T04:34:02;100182.78;;;16.94;100.00
18819;BME280;9537;45.594;9.294;2022-10-26T04:35:04;100183.78;;;16.93;100.00
18819;BME280;9537;45.594;9.294;2022-10-26T04:36:07;100192.84;;;16.92;100.00
18819;BME280;9537;45.594;9.294;2022-10-26T04:37:09;100200.63;;;16.94;100.00
18819;BME280;9537;45.594;9.294;2022-10-26T04:38:10;100203.28;;;16.94;100.00
18819;BME280;9537;45.594;9.294;2022-10-26T04:39:12;100199.38;;;16.89;100.00
18819;BME280;9537;45.594;9.294;2022-10-26T04:40:13;100208.22;;;16.90;100.00
18819;BME280;9537;45.594;9.294;2022-10-26T04:41:19;100208.84;;;16.92;100.00
18819;BME280;9537;45.594;9.294;2022-10-26T04:42:19;100211.91;;;16.89;100.00
18819;BME280;9537;45.594;9.294;2022-10-26T04:43:21;100209.66;;;16.86;100.00
18819;BME280;9537;45.594;9.294;2022-10-26T04:44:22;100212.72;;;16.83;100.00
18819;BME280;9537;45.594;9.294;2022-10-26T04:45:24;100210.66;;;16.85;100.00
18819;BME280;9537;45.594;9.294;2022-10-26T04:46:27;100207.16;;;16.84;100.00
18819;BME280;9537;45.594;9.294;2022-10-26T04:47:29;100209.00;;;16.84;100.00
18819;BME280;9537;45.594;9.294;2022-10-26T04:48:30;100202.03;;;16.83;100.00
18819;BME280;9537;45.594;9.294;2022-10-26T04:49:32;100202.66;;;16.85;100.00
18819;BME280;9537;45.594;9.294;2022-10-26T04:50:34;100196.50;;;16.84;100.00
18819;BME280;9537;45.594;9.294;2022-10-26T04:51:37;100193.63;;;16.86;100.00
18819;BME280;9537;45.594;9.294;2022-10-26T04:52:39;100190.75;;;16.87;100.00
18819;BME280;9537;45.594;9.294;2022-10-26T04:53:41;100188.50;;;16.84;100.00
18819;BME280;9537;45.594;9.294;2022-10-26T04:54:42;100193.81;;;16.84;100.00
18819;BME280;9537;45.594;9.294;2022-10-26T04:55:44;100185.41;;;16.87;100.00
18819;BME280;9537;45.594;9.294;2022-10-26T04:56:46;100186.63;;;16.85;100.00
18819;BME280;9537;45.594;9.294;2022-10-26T04:57:48;100187.09;;;16.88;100.00
18819;BME280;9537;45.594;9.294;2022-10-26T04:58:51;100191.16;;;16.91;100.00
18819;BME280;9537;45.594;9.294;2022-10-26T04:59:53;100190.34;;;16.91;100.00
18819;BME280;9537;45.594;9.294;2022-10-26T05:00:55;100183.16;;;16.91;100.00
18819;BME280;9537;45.594;9.294;2022-10-26T05:01:56;100188.31;;;16.93;100.00
18819;BME280;9537;45.594;9.294;2022-10-26T05:02:58;100190.34;;;16.91;100.00
18819;BME280;9537;45.594;9.294;2022-10-26T05:04:00;100176.00;;;16.92;100.00
18819;BME280;9537;45.594;9.294;2022-10-26T05:05:01;100185.66;;;16.93;100.00
18819;BME280;9537;45.594;9.294;2022-10-26T05:06:03;100185.44;;;16.94;100.00
18819;BME280;9537;45.594;9.294;2022-10-26T05:07:06;100182.78;;;16.94;100.00
18819;BME280;9537;45.594;9.294;2022-10-26T05:08:08;100184.41;;;16.95;100.00
18819;BME280;9537;45.594;9.294;2022-10-26T05:09:09;100188.94;;;16.95;100.00
18819;BME280;9537;45.594;9.294;2022-10-26T05:10:11;100194.69;;;16.92;100.00
18819;BME280;9537;45.594;9.294;2022-10-26T05:11:12;100190.16;;;16.92;100.00
18819;BME280;9537;45.594;9.294;2022-10-26T05:12:14;100189.13;;;16.93;100.00
18819;BME280;9537;45.594;9.294;2022-10-26T05:13:15;100190.97;;;16.93;100.00
18819;BME280;9537;45.594;9.294;2022-10-26T05:14:17;100192.84;;;16.92;100.00
18819;BME280;9537;45.594;9.294;2022-10-26T05:15:19;100188.50;;;16.91;100.00
18819;BME280;9537;45.594;9.294;2022-10-26T05:16:21;100188.09;;;16.87;100.00
18819;BME280;9537;45.594;9.294;2022-10-26T05:17:22;100193.00;;;16.84;100.00
18819;BME280;9537;45.594;9.294;2022-10-26T05:18:24;100195.91;;;16.89;100.00
18819;BME280;9537;45.594;9.294;2022-10-26T05:19:27;100194.06;;;16.89;100.00
18819;BME280;9537;45.594;9.294;2022-10-26T05:20:29;100197.34;;;16.92;100.00
18819;BME280;9537;45.594;9.294;2022-10-26T05:21:32;100198.16;;;16.92;100.00
18819;BME280;9537;45.594;9.294;2022-10-26T05:22:35;100196.31;;;16.93;100.00
18819;BME280;9537;45.594;9.294;2022-10-26T05:23:36;100201.47;;;16.94;100.00
18819;BME280;9537;45.594;9.294;2022-10-26T05:24:38;100193.47;;;16.94;100.00
18819;BME280;9537;45.594;9.294;2022-10-26T05:25:39;100197.94;;;16.94;100.00
18819;BME280;9537;45.594;9.294;2022-10-26T05:26:42;100194.47;;;16.93;100.00
18819;BME280;9537;45.594;9.294;2022-10-26T05:27:44;100193.66;;;16.93;100.00
18819;BME280;9537;45.594;9.294;2022-10-26T05:28:45;100190.78;;;16.94;100.00
18819;BME280;9537;45.594;9.294;2022-10-26T05:29:48;100197.13;;;16.93;100.00
18819;BME280;9537;45.594;9.294;2022-10-26T05:30:49;100198.16;;;16.92;100.00
18819;BME280;9537;45.594;9.294;2022-10-26T05:31:51;100192.00;;;16.92;100.00
18819;BME280;9537;45.594;9.294;2022-10-26T05:32:53;100192.00;;;16.92;100.00
18819;BME280;9537;45.594;9.294;2022-10-26T05:33:56;100191.78;;;16.93;100.00
18819;BME280;9537;45.594;9.294;2022-10-26T05:34:59;100206.41;;;16.97;100.00
18819;BME280;9537;45.594;9.294;2022-10-26T05:36:00;100192.22;;;16.97;100.00
18819;BME280;9537;45.594;9.294;2022-10-26T05:37:02;100195.91;;;16.96;100.00
18819;BME280;9537;45.594;9.294;2022-10-26T05:38:09;100195.72;;;16.97;100.00
18819;BME280;9537;45.594;9.294;2022-10-26T05:39:10;100189.53;;;16.97;100.00
18819;BME280;9537;45.594;9.294;2022-10-26T05:40:12;100186.88;;;16.97;100.00
18819;BME280;9537;45.594;9.294;2022-10-26T05:41:13;100184.19;;;16.97;100.00
18819;BME280;9537;45.594;9.294;2022-10-26T05:42:15;100192.44;;;16.95;100.00